createdAt,value
2019-04-19T00:01:55.334Z,8.43
2019-04-19T00:04:20.219Z,7.30
2019-04-19T00:07:01.443Z,7.23
2019-04-19T00:09:34.647Z,7.00
2019-04-19T00:12:06.589Z,7.47
2019-04-19T00:14:29.346Z,7.00
2019-04-19T00:16:59.688Z,7.13
2019-04-19T00:19:45.184Z,6.87
2019-04-19T00:22:18.514Z,7.93
2019-04-19T00:24:33.427Z,6.47
2019-04-19T00:27:04.026Z,6.90
2019-04-19T00:29:44.854Z,7.30
2019-04-19T00:32:20.692Z,7.43
2019-04-19T00:34:39.868Z,7.80
2019-04-19T00:37:11.937Z,6.90
2019-04-19T00:40:20.023Z,6.97
2019-04-19T00:43:05.286Z,6.37
2019-04-19T00:46:09.225Z,7.17
2019-04-19T00:48:42.365Z,6.73
2019-04-19T00:51:09.770Z,7.47
2019-04-19T00:53:40.997Z,7.37
2019-04-19T00:56:12.473Z,6.90
2019-04-19T00:58:37.464Z,7.10
2019-04-19T01:01:13.483Z,7.50
2019-04-19T01:03:43.631Z,6.73
2019-04-19T01:06:14.147Z,5.80
2019-04-19T01:08:51.864Z,7.03
2019-04-19T01:11:27.626Z,7.60
2019-04-19T01:14:01.088Z,6.80
2019-04-19T01:16:28.934Z,7.70
2019-04-19T01:18:56.144Z,7.37
2019-04-19T01:21:19.519Z,6.80
2019-04-19T01:23:53.975Z,6.63
2019-04-19T01:26:21.525Z,6.87
2019-04-19T01:29:00.274Z,6.43
2019-04-19T01:31:26.307Z,7.20
2019-04-19T01:33:54.692Z,7.20
2019-04-19T01:36:30.561Z,7.27
2019-04-19T01:39:16.566Z,6.37
2019-04-19T01:41:41.804Z,7.07
2019-04-19T01:44:29.021Z,7.37
2019-04-19T01:47:03.107Z,6.73
2019-04-19T01:49:49.264Z,6.70
2019-04-19T01:52:37.117Z,7.20
2019-04-19T01:54:54.349Z,6.63
2019-04-19T01:57:14.099Z,8.80
2019-04-19T01:59:48.402Z,9.33
2019-04-19T02:02:17.891Z,7.27
2019-04-19T02:04:47.598Z,8.00
2019-04-19T02:07:22.328Z,6.90
2019-04-19T02:10:02.785Z,7.70
2019-04-19T02:12:34.536Z,7.80
2019-04-19T02:14:59.508Z,7.33
2019-04-19T02:17:27.588Z,6.90
2019-04-19T02:20:00.533Z,7.27
2019-04-19T02:22:32.755Z,7.50
2019-04-19T02:25:00.435Z,7.47
2019-04-19T02:27:34.067Z,7.23
2019-04-19T02:30:11.225Z,7.30
2019-04-19T02:32:50.969Z,8.23
2019-04-19T02:35:47.897Z,7.33
2019-04-19T02:37:57.416Z,7.50
2019-04-19T02:43:06.829Z,7.33
2019-04-19T02:48:07.760Z,7.27
2019-04-19T02:51:02.000Z,7.67
2019-04-19T02:55:50.156Z,7.80
2019-04-19T03:00:58.582Z,7.20
2019-04-19T03:05:53.369Z,6.60
2019-04-19T03:08:06.245Z,8.77
2019-04-19T03:10:49.875Z,7.90
2019-04-19T03:13:21.800Z,7.43
2019-04-19T03:16:09.726Z,8.40
2019-04-19T03:20:54.248Z,7.70
2019-04-19T03:23:26.334Z,7.57
2019-04-19T03:25:54.652Z,8.07
2019-04-19T03:28:25.700Z,7.93
2019-04-19T03:31:20.429Z,6.90
2019-04-19T03:36:11.899Z,7.17
2019-04-19T03:38:40.452Z,6.67
2019-04-19T03:41:27.367Z,7.77
2019-04-19T03:43:51.777Z,7.70
2019-04-19T03:46:22.886Z,7.80
2019-04-19T03:48:51.545Z,7.90
2019-04-19T03:51:24.645Z,7.13
2019-04-19T03:54:16.123Z,7.77
2019-04-19T03:56:43.719Z,8.37
2019-04-19T03:58:42.267Z,7.70
2019-04-19T04:01:12.901Z,7.93
2019-04-19T04:03:46.139Z,7.90
2019-04-19T04:06:23.079Z,8.33
2019-04-19T04:08:53.642Z,6.33
2019-04-19T04:11:28.085Z,8.20
2019-04-19T04:14:16.947Z,7.77
2019-04-19T04:16:43.845Z,6.80
2019-04-19T04:19:10.300Z,7.50
2019-04-19T04:21:46.376Z,7.30
2019-04-19T04:24:20.796Z,7.50
2019-04-19T04:26:56.127Z,7.63
2019-04-19T04:29:23.709Z,7.63
2019-04-19T04:31:59.483Z,7.30
2019-04-19T04:34:32.399Z,8.57
2019-04-19T04:37:09.823Z,7.50
2019-04-19T04:39:22.359Z,8.53
2019-04-19T04:42:05.709Z,7.20
2019-04-19T04:44:44.402Z,6.90
2019-04-19T04:47:33.902Z,6.50
2019-04-19T04:50:11.999Z,6.90
2019-04-19T04:52:37.026Z,7.20
2019-04-19T04:55:09.571Z,6.00
2019-04-19T04:57:47.709Z,7.30
2019-04-19T05:00:11.907Z,6.97
2019-04-19T05:02:59.065Z,6.33
2019-04-19T05:05:31.621Z,6.83
2019-04-19T05:08:09.154Z,7.13
2019-04-19T05:10:33.379Z,6.90
2019-04-19T05:15:40.331Z,7.57
2019-04-19T05:18:18.252Z,7.80
2019-04-19T05:20:40.985Z,6.70
2019-04-19T05:23:12.260Z,6.80
2019-04-19T05:25:49.045Z,6.70
2019-04-19T05:28:16.744Z,7.17
2019-04-19T05:30:40.200Z,7.37
2019-04-19T05:33:09.888Z,6.60
2019-04-19T05:35:54.286Z,6.17
2019-04-19T05:38:51.842Z,6.87
2019-04-19T05:41:35.018Z,7.50
2019-04-19T05:46:53.504Z,6.90
2019-04-19T05:49:19.378Z,6.33
2019-04-19T05:51:55.385Z,7.10
2019-04-19T05:54:13.204Z,6.47
2019-04-19T05:56:45.106Z,6.97
2019-04-19T05:59:21.458Z,7.00
2019-04-19T06:01:59.104Z,7.20
2019-04-19T06:04:34.648Z,7.33
2019-04-19T06:07:09.424Z,6.50
2019-04-19T06:09:21.800Z,6.97
2019-04-19T06:11:51.751Z,7.30
2019-04-19T06:14:45.406Z,7.07
2019-04-19T06:17:29.302Z,6.00
2019-04-19T06:20:04.633Z,7.27
2019-04-19T06:22:37.078Z,8.03
2019-04-19T06:25:10.250Z,7.37
2019-04-19T06:27:51.447Z,7.30
2019-04-19T06:30:16.142Z,7.20
2019-04-19T06:32:46.125Z,7.10
2019-04-19T06:35:09.925Z,6.77
2019-04-19T06:37:28.550Z,6.70
2019-04-19T06:40:03.858Z,6.73
2019-04-19T06:42:35.955Z,8.20
2019-04-19T06:45:19.991Z,8.30
2019-04-19T06:47:38.928Z,7.33
2019-04-19T06:50:04.860Z,7.70
2019-04-19T06:52:36.735Z,7.30
2019-04-19T06:55:14.084Z,6.63
2019-04-19T06:57:50.076Z,7.53
2019-04-19T07:00:22.740Z,7.73
2019-04-19T07:02:41.790Z,7.43
2019-04-19T07:05:23.281Z,6.97
2019-04-19T07:08:10.061Z,7.30
2019-04-19T07:10:42.715Z,7.13
2019-04-19T07:13:05.837Z,7.40
2019-04-19T07:15:53.528Z,6.87
2019-04-19T07:18:06.257Z,7.30
2019-04-19T07:20:33.949Z,7.07
2019-04-19T07:23:06.849Z,7.10
2019-04-19T07:25:48.974Z,6.83
2019-04-19T07:28:08.066Z,7.47
2019-04-19T07:30:28.925Z,7.23
2019-04-19T07:33:05.877Z,7.03
2019-04-19T07:35:54.213Z,7.40
2019-04-19T07:40:54.161Z,7.00
2019-04-19T07:43:23.642Z,7.20
2019-04-19T07:46:08.469Z,7.63
2019-04-19T07:48:42.753Z,6.93
2019-04-19T07:51:20.227Z,7.17
2019-04-19T07:53:48.868Z,6.70
2019-04-19T07:56:27.321Z,7.80
2019-04-19T07:59:13.214Z,7.00
2019-04-19T08:01:54.532Z,7.37
2019-04-19T08:04:40.577Z,7.63
2019-04-19T08:06:58.286Z,6.53
2019-04-19T08:09:18.807Z,8.10
2019-04-19T08:14:22.859Z,7.00
2019-04-19T08:17:30.492Z,7.37
2019-04-19T08:29:22.439Z,6.33
2019-04-19T08:31:40.261Z,7.00
2019-04-19T08:34:17.648Z,6.50
2019-04-19T08:36:53.124Z,6.67
2019-04-19T08:39:33.839Z,6.63
2019-04-19T08:42:12.099Z,6.73
2019-04-19T08:44:34.800Z,6.77
2019-04-19T08:47:21.276Z,7.57
2019-04-19T08:50:02.724Z,6.73
2019-04-19T08:52:36.856Z,7.13
2019-04-19T08:55:26.017Z,6.87
2019-04-19T08:57:37.447Z,7.40
2019-04-19T09:00:41.101Z,7.17
2019-04-19T09:02:50.367Z,6.93
2019-04-19T09:05:26.980Z,6.73
2019-04-19T09:08:08.476Z,5.73
2019-04-19T09:10:33.554Z,6.47
2019-04-19T09:13:18.178Z,7.43
2019-04-19T09:15:33.084Z,7.13
2019-04-19T09:18:26.169Z,6.90
2019-04-19T09:20:44.475Z,6.60
2019-04-19T09:23:13.039Z,7.03
2019-04-19T09:25:40.963Z,6.17
2019-04-19T09:28:33.450Z,7.27
2019-04-19T09:30:52.300Z,6.60
2019-04-19T09:33:13.555Z,6.37
2019-04-19T09:35:52.278Z,6.30
2019-04-19T09:38:21.415Z,6.30
2019-04-19T09:40:50.377Z,6.10
2019-04-19T09:43:30.035Z,6.23
2019-04-19T09:45:46.921Z,5.70
2019-04-19T09:48:37.904Z,5.80
2019-04-19T09:51:04.660Z,6.80
2019-04-19T09:53:46.910Z,5.93
2019-04-19T09:56:13.438Z,5.50
2019-04-19T09:58:40.532Z,5.90
2019-04-19T10:01:06.833Z,5.30
2019-04-19T10:03:44.093Z,7.20
2019-04-19T10:06:10.765Z,6.10
2019-04-19T10:08:41.996Z,6.33
2019-04-19T10:11:12.708Z,5.27
2019-04-19T10:13:43.922Z,6.00
2019-04-19T10:16:40.025Z,5.87
2019-04-19T10:19:11.533Z,5.93
2019-04-19T10:21:54.184Z,5.30
2019-04-19T10:24:24.802Z,5.17
2019-04-19T10:27:07.305Z,5.87
2019-04-19T10:29:40.679Z,6.00
2019-04-19T10:32:44.574Z,6.30
2019-04-19T10:35:15.512Z,5.87
2019-04-19T10:37:46.018Z,6.10
2019-04-19T10:40:17.469Z,5.80
2019-04-19T10:42:47.682Z,5.87
2019-04-19T10:45:18.384Z,6.50
2019-04-19T10:47:49.367Z,6.10
2019-04-19T10:50:33.435Z,5.90
2019-04-19T10:52:52.550Z,4.97
2019-04-19T10:55:24.721Z,6.07
2019-04-19T10:57:54.609Z,6.00
2019-04-19T11:00:25.132Z,5.30
2019-04-19T11:02:55.025Z,5.77
2019-04-19T11:05:28.976Z,5.37
2019-04-19T11:07:59.349Z,5.30
2019-04-19T11:10:29.522Z,5.80
2019-04-19T11:13:00.539Z,5.53
2019-04-19T11:15:30.794Z,5.80
2019-04-19T11:18:01.544Z,5.53
2019-04-19T11:20:40.248Z,7.57
2019-04-19T11:23:03.883Z,5.10
2019-04-19T11:25:35.696Z,4.97
2019-04-19T11:28:07.026Z,5.10
2019-04-19T11:30:48.956Z,6.20
2019-04-19T11:33:23.479Z,4.73
2019-04-19T11:35:55.377Z,6.70
2019-04-19T11:38:26.997Z,5.80
2019-04-19T11:40:58.585Z,5.20
2019-04-19T11:43:29.783Z,4.80
2019-04-19T11:46:02.113Z,5.80
2019-04-19T11:48:34.802Z,5.60
2019-04-19T11:51:05.687Z,4.90
2019-04-19T11:53:40.772Z,5.20
2019-04-19T11:56:54.286Z,5.80
2019-04-19T11:59:34.173Z,6.50
2019-04-19T12:01:59.888Z,4.83
2019-04-19T12:04:30.163Z,5.50
2019-04-19T12:07:00.773Z,5.73
2019-04-19T12:09:30.783Z,6.17
2019-04-19T12:12:00.578Z,4.60
2019-04-19T12:14:31.553Z,5.80
2019-04-19T12:17:02.817Z,5.20
2019-04-19T12:19:41.400Z,6.37
2019-04-19T12:22:05.460Z,5.70
2019-04-19T12:24:36.071Z,5.97
2019-04-19T12:27:07.435Z,5.40
2019-04-19T12:29:44.175Z,5.13
2019-04-19T12:32:09.544Z,5.33
2019-04-19T12:34:40.420Z,5.57
2019-04-19T12:37:11.065Z,6.20
2019-04-19T12:39:41.144Z,5.73
2019-04-19T12:42:28.205Z,5.17
2019-04-19T12:44:58.130Z,5.20
2019-04-19T12:47:28.957Z,6.20
2019-04-19T12:50:05.691Z,5.77
2019-04-19T12:52:31.426Z,5.50
2019-04-19T12:55:01.920Z,5.80
2019-04-19T12:57:36.331Z,5.40
2019-04-19T13:00:07.845Z,5.40
2019-04-19T13:03:02.147Z,5.27
2019-04-19T13:05:37.455Z,6.40
2019-04-19T13:08:07.590Z,6.43
2019-04-19T13:10:38.481Z,6.27
2019-04-19T13:13:09.776Z,5.70
2019-04-19T13:15:40.656Z,5.33
2019-04-19T13:18:10.358Z,6.60
2019-04-19T13:20:41.919Z,5.40
2019-04-19T13:23:12.527Z,5.60
2019-04-19T13:25:42.358Z,5.67
2019-04-19T13:28:13.271Z,5.73
2019-04-19T13:30:50.766Z,5.17
2019-04-19T13:33:16.412Z,5.37
2019-04-19T13:35:46.585Z,5.30
2019-04-19T13:38:32.968Z,5.27
2019-04-19T13:41:20.960Z,5.93
2019-04-19T13:43:51.103Z,5.53
2019-04-19T13:46:22.293Z,5.20
2019-04-19T13:48:52.618Z,6.60
2019-04-19T13:51:22.802Z,5.63
2019-04-19T13:53:54.432Z,6.13
2019-04-19T13:56:24.871Z,5.03
2019-04-19T13:58:55.895Z,6.40
2019-04-19T14:01:25.897Z,5.93
2019-04-19T14:03:55.679Z,5.80
2019-04-19T14:06:26.527Z,5.60
2019-04-19T14:08:57.543Z,4.80
2019-04-19T14:11:28.927Z,5.00
2019-04-19T14:14:00.784Z,6.20
2019-04-19T14:16:30.374Z,5.23
2019-04-19T14:19:00.576Z,5.20
2019-04-19T14:21:32.852Z,5.40
2019-04-19T14:24:03.789Z,5.23
2019-04-19T14:26:39.767Z,5.20
2019-04-19T14:29:05.758Z,4.30
2019-04-19T14:31:36.569Z,5.27
2019-04-19T14:34:06.832Z,4.77
2019-04-19T14:36:38.571Z,5.47
2019-04-19T14:39:09.061Z,4.70
2019-04-19T14:41:41.412Z,5.30
2019-04-19T14:44:11.419Z,4.90
2019-04-19T14:46:41.303Z,4.27
2019-04-19T14:49:11.234Z,4.23
2019-04-19T14:51:42.780Z,4.80
2019-04-19T14:54:12.682Z,4.63
2019-04-19T14:56:43.450Z,5.57
2019-04-19T14:59:13.426Z,4.67
2019-04-19T15:02:08.942Z,5.33
2019-04-19T15:04:42.953Z,4.40
2019-04-19T15:07:12.710Z,5.00
2019-04-19T15:09:43.852Z,3.93
2019-04-19T15:12:13.908Z,4.93
2019-04-19T15:14:44.723Z,5.00
2019-04-19T15:17:15.795Z,4.30
2019-04-19T15:19:46.682Z,4.50
2019-04-19T15:22:16.891Z,4.80
2019-04-19T15:24:47.263Z,4.30
2019-04-19T15:27:18.981Z,4.17
2019-04-19T15:29:49.255Z,5.30
2019-04-19T15:32:20.249Z,4.87
2019-04-19T15:34:51.644Z,4.33
2019-04-19T15:37:22.096Z,4.60
2019-04-19T15:39:53.865Z,4.47
2019-04-19T15:42:24.731Z,4.83
2019-04-19T15:44:55.225Z,4.40
2019-04-19T15:47:26.428Z,4.80
2019-04-19T15:49:57.847Z,3.87
2019-04-19T15:52:30.223Z,5.20
2019-04-19T15:55:00.206Z,5.00
2019-04-19T15:57:30.377Z,4.10
2019-04-19T16:00:02.260Z,4.80
2019-04-19T16:02:38.478Z,4.87
2019-04-19T16:05:26.624Z,5.60
2019-04-19T16:08:16.084Z,4.83
2019-04-19T16:11:04.597Z,5.20
2019-04-19T16:13:38.249Z,5.00
2019-04-19T16:16:08.283Z,5.20
2019-04-19T16:18:38.330Z,5.63
2019-04-19T16:21:20.103Z,4.43
2019-04-19T16:23:40.150Z,4.53
2019-04-19T16:26:10.916Z,4.50
2019-04-19T16:28:41.908Z,4.97
2019-04-19T16:31:12.531Z,4.50
2019-04-19T16:33:43.863Z,4.80
2019-04-19T16:36:18.915Z,4.60
2019-04-19T16:38:49.151Z,4.60
2019-04-19T16:41:24.706Z,4.50
2019-04-19T16:43:55.771Z,3.90
2019-04-19T16:46:30.154Z,5.10
2019-04-19T16:48:58.496Z,4.43
2019-04-19T16:51:37.631Z,5.30
2019-04-19T16:54:00.886Z,4.63
2019-04-19T16:56:33.443Z,4.70
2019-04-19T16:59:05.175Z,4.50
2019-04-19T17:01:35.221Z,4.40
2019-04-19T17:04:05.864Z,3.90
2019-04-19T17:06:36.453Z,4.50
2019-04-19T17:09:10.936Z,4.20
2019-04-19T17:11:41.993Z,5.00
2019-04-19T17:14:12.471Z,4.30
2019-04-19T17:16:56.838Z,4.13
2019-04-19T17:19:31.000Z,4.30
2019-04-19T17:22:09.024Z,3.43
2019-04-19T17:24:34.641Z,4.13
2019-04-19T17:27:04.940Z,3.40
2019-04-19T17:29:35.271Z,3.80
2019-04-19T17:32:05.861Z,3.60
2019-04-19T17:34:36.214Z,4.00
2019-04-19T17:37:06.432Z,3.80
2019-04-19T17:39:36.373Z,3.40
2019-04-19T17:42:06.485Z,4.23
2019-04-19T17:44:37.427Z,3.67
2019-04-19T17:47:10.306Z,3.67
2019-04-19T17:49:40.492Z,3.63
2019-04-19T17:52:20.856Z,3.80
2019-04-19T17:55:01.279Z,3.53
2019-04-19T17:57:15.406Z,3.30
2019-04-19T17:59:46.516Z,3.13
2019-04-19T18:02:17.042Z,3.13
2019-04-19T18:04:48.159Z,2.87
2019-04-19T18:07:18.929Z,3.30
2019-04-19T18:09:54.576Z,2.73
2019-04-19T18:12:21.140Z,3.00
2019-04-19T18:14:53.315Z,3.30
2019-04-19T18:17:24.263Z,3.30
2019-04-19T18:19:54.226Z,3.00
2019-04-19T18:22:37.945Z,2.83
2019-04-19T18:24:58.498Z,3.93
2019-04-19T18:27:28.391Z,3.37
2019-04-19T18:30:03.281Z,3.50
2019-04-19T18:32:36.257Z,3.83
2019-04-19T18:35:15.170Z,4.20
2019-04-19T18:37:41.575Z,3.40
2019-04-19T18:40:13.032Z,3.60
2019-04-19T18:42:51.138Z,3.77
2019-04-19T18:45:20.963Z,3.33
2019-04-19T18:47:47.281Z,3.80
2019-04-19T18:50:18.177Z,4.40
2019-04-19T18:52:58.777Z,3.80
2019-04-19T18:55:29.591Z,3.77
2019-04-19T18:57:54.160Z,4.17
2019-04-19T19:00:26.855Z,5.00
2019-04-19T19:03:00.348Z,5.23
2019-04-19T19:05:28.095Z,4.40
2019-04-19T19:08:01.983Z,4.80
2019-04-19T19:10:39.024Z,4.40
2019-04-19T19:13:02.379Z,4.70
2019-04-19T19:15:41.910Z,4.60
2019-04-19T19:18:04.284Z,3.83
2019-04-19T19:20:36.937Z,3.70
2019-04-19T19:23:20.142Z,4.60
2019-04-19T19:25:48.160Z,4.73
2019-04-19T19:28:17.185Z,5.17
2019-04-19T19:30:48.775Z,4.80
2019-04-19T19:33:36.541Z,4.10
2019-04-19T19:36:06.688Z,4.40
2019-04-19T19:38:48.876Z,4.00
2019-04-19T19:41:54.617Z,5.43
2019-04-19T19:43:59.740Z,4.40
2019-04-19T19:46:40.109Z,3.43
2019-04-19T19:49:31.123Z,3.10
2019-04-19T19:51:36.494Z,3.50
2019-04-19T19:54:38.930Z,2.73
2019-04-19T19:56:49.074Z,2.57
2019-04-19T19:59:15.736Z,2.50
2019-04-19T20:01:49.546Z,2.53
2019-04-19T20:04:09.726Z,2.60
2019-04-19T20:06:49.052Z,2.50
2019-04-19T20:09:22.359Z,3.17
2019-04-19T20:11:47.963Z,3.27
2019-04-19T20:14:21.973Z,3.07
2019-04-19T20:16:53.897Z,3.63
2019-04-19T20:19:24.294Z,3.77
2019-04-19T20:22:01.728Z,6.67
2019-04-19T20:24:40.140Z,4.10
2019-04-19T20:27:09.527Z,2.60
2019-04-19T20:29:33.297Z,3.93
2019-04-19T20:32:09.692Z,3.60
2019-04-19T20:34:37.472Z,3.80
2019-04-19T20:37:13.066Z,2.70
2019-04-19T20:39:45.479Z,3.00
2019-04-19T20:42:25.209Z,1.87
2019-04-19T20:44:57.529Z,2.37
2019-04-19T20:47:20.509Z,2.63
2019-04-19T20:49:51.123Z,2.40
2019-04-19T20:52:40.404Z,2.03
2019-04-19T20:55:21.800Z,2.60
2019-04-19T20:57:52.472Z,2.50
2019-04-19T21:00:20.973Z,2.77
2019-04-19T21:02:59.346Z,2.37
2019-04-19T21:05:42.565Z,1.80
2019-04-19T21:08:12.180Z,1.63
2019-04-19T21:10:42.663Z,2.50
2019-04-19T21:13:15.945Z,2.17
2019-04-19T21:15:58.377Z,2.50
2019-04-19T21:18:32.677Z,2.30
2019-04-19T21:21:09.290Z,2.23
2019-04-19T21:23:40.687Z,2.30
2019-04-19T21:26:21.538Z,2.00
2019-04-19T21:28:50.807Z,1.73
2019-04-19T21:31:27.017Z,2.17
2019-04-19T21:33:57.762Z,2.20
2019-04-19T21:36:27.874Z,2.07
2019-04-19T21:39:02.123Z,2.10
2019-04-19T21:41:33.234Z,6.30
2019-04-19T21:44:00.713Z,2.60
2019-04-19T21:46:33.365Z,6.07
2019-04-19T21:49:11.062Z,1.87
2019-04-19T21:51:36.385Z,3.93
2019-04-19T21:54:06.430Z,3.43
2019-04-19T21:56:40.363Z,2.13
2019-04-19T21:59:09.018Z,3.10
2019-04-19T22:01:46.004Z,2.90
2019-04-19T22:04:17.158Z,2.40
2019-04-19T22:06:53.926Z,3.90
2019-04-19T22:09:21.965Z,2.77
2019-04-19T22:11:50.314Z,2.60
2019-04-19T22:14:24.806Z,2.80
2019-04-19T22:16:54.733Z,3.07
2019-04-19T22:19:28.422Z,2.90
2019-04-19T22:21:56.743Z,2.70
2019-04-19T22:24:32.364Z,2.50
2019-04-19T22:26:59.636Z,2.93
2019-04-19T22:29:31.416Z,1.83
2019-04-19T22:32:08.540Z,2.40
2019-04-19T22:34:34.682Z,2.97
2019-04-19T22:37:06.757Z,2.57
2019-04-19T22:39:39.272Z,3.27
2019-04-19T22:42:10.566Z,2.27
2019-04-19T22:44:40.822Z,2.70
2019-04-19T22:47:16.612Z,2.50
2019-04-19T22:49:45.737Z,2.57
2019-04-19T22:52:16.478Z,2.30
2019-04-19T22:54:46.687Z,2.53
2019-04-19T22:57:21.744Z,2.10
2019-04-19T22:59:56.389Z,3.17
2019-04-19T23:02:48.615Z,2.63
2019-04-19T23:05:25.109Z,2.73
2019-04-19T23:07:59.072Z,2.33
2019-04-19T23:10:39.965Z,2.93
2019-04-19T23:13:02.965Z,3.07
2019-04-19T23:15:35.986Z,3.30
2019-04-19T23:18:12.730Z,2.70
2019-04-19T23:20:37.124Z,2.60
2019-04-19T23:23:14.782Z,2.80
2019-04-19T23:25:43.394Z,2.80
2019-04-19T23:28:18.820Z,3.40
2019-04-19T23:30:43.306Z,2.73
2019-04-19T23:33:18.090Z,3.20
2019-04-19T23:35:45.286Z,2.87
2019-04-19T23:38:20.807Z,2.90
2019-04-19T23:40:48.759Z,3.27
2019-04-19T23:43:27.960Z,4.17
2019-04-19T23:45:51.316Z,3.13
2019-04-19T23:48:24.893Z,2.60
2019-04-19T23:50:54.566Z,3.20
2019-04-19T23:53:32.915Z,3.17
2019-04-19T23:55:56.360Z,2.87
2019-04-19T23:58:29.532Z,3.40
